Time;durP1;ratioP1;P1;durP2;ratioP2;P2;SDS_P1;SDS_P2;PMS_P1;PMS_P2;Temp;Humidity;BMP_temperature;BMP_pressure;BME280_temperature;BME280_humidity;BME280_pressure;Samples;Min_cycle;Max_cycle;Signal;HPM_P1;HPM_P2
2023/10/17 00:02:49;;;;;;;14.82;13.02;;;;;;;;;;5070829;28;20521;-58
2023/10/17 00:05:14;;;;;;;13.00;10.98;;;;;;;;;;5068992;28;20132;-59
2023/10/17 00:07:43;;;;;;;14.82;12.10;;;;;;;;;;5070975;28;20035;-58
2023/10/17 00:10:14;;;;;;;15.27;12.07;;;;;;;;;;5068828;28;20039;-58
2023/10/17 00:12:41;;;;;;;16.50;12.02;;;;;;;;;;5070509;28;20433;-57
2023/10/17 00:15:27;;;;;;;16.20;12.15;;;;;;;;;;5069208;28;20032;-59
2023/10/17 00:17:54;;;;;;;12.38;11.18;;;;;;;;;;5070398;28;20035;-58
2023/10/17 00:20:24;;;;;;;12.47;11.20;;;;;;;;;;5068634;28;20040;-58
2023/10/17 00:22:51;;;;;;;14.05;10.43;;;;;;;;;;5070629;28;20137;-58
2023/10/17 00:25:17;;;;;;;14.45;12.25;;;;;;;;;;5069298;28;20055;-58
2023/10/17 00:27:43;;;;;;;15.00;12.07;;;;;;;;;;5070509;28;20374;-58
2023/10/17 00:30:16;;;;;;;13.60;12.23;;;;;;;;;;5068856;28;20111;-58
2023/10/17 00:32:42;;;;;;;17.20;12.13;;;;;;;;;;5070327;28;20024;-58
2023/10/17 00:35:13;;;;;;;16.13;12.45;;;;;;;;;;5068340;28;20051;-58
2023/10/17 00:37:39;;;;;;;18.02;11.10;;;;;;;;;;5070806;28;20047;-58
2023/10/17 00:40:05;;;;;;;16.33;11.30;;;;;;;;;;5068888;28;20570;-58
2023/10/17 00:42:34;;;;;;;19.05;13.10;;;;;;;;;;5070242;28;20395;-58
2023/10/17 00:45:00;;;;;;;14.38;12.88;;;;;;;;;;5068932;28;20049;-57
2023/10/17 00:47:27;;;;;;;21.10;14.20;;;;;;;;;;5070180;28;20127;-58
2023/10/17 00:49:52;;;;;;;19.17;12.15;;;;;;;;;;5068603;28;20438;-57
2023/10/17 00:52:24;;;;;;;16.95;13.45;;;;;;;;;;5070633;28;20016;-58
2023/10/17 00:54:51;;;;;;;19.58;12.10;;;;;;;;;;5069013;28;20047;-57
2023/10/17 00:57:19;;;;;;;13.38;12.02;;;;;;;;;;5070231;28;20012;-58
2023/10/17 00:59:50;;;;;;;15.82;12.57;;;;;;;;;;5068994;28;20047;-57
2023/10/17 01:02:15;;;;;;;15.73;12.93;;;;;;;;;;5070614;28;20024;-57
2023/10/17 01:04:44;;;;;;;13.73;10.35;;;;;;;;;;5068684;28;20103;-57
2023/10/17 01:07:11;;;;;;;;;;;;;;;;;;5070904;28;20377;-57
2023/10/17 01:09:36;;;;;;;12.45;11.15;;;;;;;;;;5070540;28;19904;-58
2023/10/17 01:12:08;;;;;;;17.03;12.13;;;;;;;;;;5067948;28;20516;-57
2023/10/17 01:14:33;;;;;;;20.90;14.20;;;;;;;;;;5070443;28;20024;-58
2023/10/17 01:16:58;;;;;;;14.80;11.27;;;;;;;;;;5068220;28;20044;-57
2023/10/17 01:19:23;;;;;;;18.42;13.25;;;;;;;;;;5069548;28;20526;-57
2023/10/17 01:21:49;;;;;;;16.00;12.20;;;;;;;;;;5071187;28;20029;-58
2023/10/17 01:24:14;;;;;;;14.23;12.33;;;;;;;;;;5073829;28;20422;-57
2023/10/17 01:26:44;;;;;;;17.52;13.90;;;;;;;;;;5071006;28;20473;-60
2023/10/17 01:29:12;;;;;;;19.27;14.02;;;;;;;;;;5073885;28;20024;-58
2023/10/17 01:31:43;;;;;;;15.38;13.85;;;;;;;;;;5071978;28;20036;-58
2023/10/17 01:34:09;;;;;;;17.77;14.32;;;;;;;;;;5073000;28;20047;-58
2023/10/17 01:36:37;;;;;;;21.98;15.77;;;;;;;;;;5072156;28;20473;-58
2023/10/17 01:39:06;;;;;;;13.13;11.25;;;;;;;;;;5073350;28;20048;-58
2023/10/17 01:41:31;;;;;;;16.00;14.30;;;;;;;;;;5070309;28;20029;-58
2023/10/17 01:43:57;;;;;;;20.20;14.85;;;;;;;;;;5073092;28;20514;-58
2023/10/17 01:46:22;;;;;;;19.25;14.77;;;;;;;;;;5072040;28;20070;-59
2023/10/17 01:48:48;;;;;;;19.88;14.68;;;;;;;;;;5073100;28;20023;-58
2023/10/17 01:51:14;;;;;;;23.95;16.75;;;;;;;;;;5071823;28;20040;-58
2023/10/17 01:53:39;;;;;;;16.67;14.77;;;;;;;;;;5073133;28;20427;-58
2023/10/17 01:56:14;;;;;;;14.73;12.48;;;;;;;;;;5071175;28;20131;-59
2023/10/17 01:58:48;;;;;;;18.40;15.73;;;;;;;;;;5073291;28;20020;-58
2023/10/17 02:01:14;;;;;;;31.02;16.10;;;;;;;;;;5071528;28;20032;-58
2023/10/17 02:03:40;;;;;;;22.20;15.20;;;;;;;;;;5072886;28;20017;-59
2023/10/17 02:06:13;;;;;;;18.85;13.68;;;;;;;;;;5071376;28;20924;-59
2023/10/17 02:08:39;;;;;;;16.25;14.52;;;;;;;;;;5072889;28;20028;-58
2023/10/17 02:11:08;;;;;;;16.63;13.25;;;;;;;;;;5070734;28;20037;-58
2023/10/17 02:13:34;;;;;;;19.58;17.25;;;;;;;;;;5072978;28;20028;-58
2023/10/17 02:16:00;;;;;;;19.38;14.52;;;;;;;;;;5071295;28;20032;-59
2023/10/17 02:18:25;;;;;;;18.25;16.20;;;;;;;;;;5072629;28;20353;-58
2023/10/17 02:20:53;;;;;;;22.57;14.57;;;;;;;;;;5071140;28;20085;-58
2023/10/17 02:23:25;;;;;;;17.87;14.83;;;;;;;;;;5073008;28;20418;-58
2023/10/17 02:25:51;;;;;;;23.13;16.67;;;;;;;;;;5070851;28;20164;-59
2023/10/17 02:28:16;;;;;;;18.98;14.23;;;;;;;;;;5072615;28;20482;-58
2023/10/17 02:30:44;;;;;;;23.37;14.37;;;;;;;;;;5071046;28;20062;-59
2023/10/17 02:33:17;;;;;;;22.43;15.53;;;;;;;;;;5072168;28;20441;-59
2023/10/17 02:35:53;;;;;;;22.83;16.67;;;;;;;;;;5070965;28;20040;-58
2023/10/17 02:38:19;;;;;;;25.77;16.98;;;;;;;;;;5072231;28;20021;-58
2023/10/17 02:40:51;;;;;;;23.70;17.83;;;;;;;;;;5070571;28;20036;-58
2023/10/17 02:43:16;;;;;;;22.10;16.65;;;;;;;;;;5072568;28;20027;-58
2023/10/17 02:45:41;;;;;;;21.07;17.10;;;;;;;;;;5070972;28;20029;-58
2023/10/17 02:48:23;;;;;;;24.35;16.38;;;;;;;;;;5071922;28;20020;-59
2023/10/17 02:51:01;;;;;;;22.60;16.65;;;;;;;;;;5070244;28;20032;-58
2023/10/17 02:53:29;;;;;;;;;;;;;;;;;;5072852;28;20138;-58
2023/10/17 02:55:55;;;;;;;29.90;17.53;;;;;;;;;;5070058;28;19913;-58
2023/10/17 02:58:20;;;;;;;24.40;19.10;;;;;;;;;;5071934;28;20017;-58
2023/10/17 03:00:47;;;;;;;21.98;17.00;;;;;;;;;;5070260;28;20082;-58
2023/10/17 03:03:12;;;;;;;23.15;17.45;;;;;;;;;;5071751;28;20428;-58
2023/10/17 03:05:41;;;;;;;27.60;19.30;;;;;;;;;;5070277;28;20051;-58
2023/10/17 03:08:10;;;;;;;28.77;17.83;;;;;;;;;;5071436;28;20022;-58
2023/10/17 03:10:39;;;;;;;;;;;;;;;;;;5070384;28;20728;-58
2023/10/17 03:15:46;;;;;;;28.55;18.42;;;;;;;;;;5070507;28;20094;-58
2023/10/17 03:18:15;;;;;;;29.67;21.70;;;;;;;;;;5071055;28;20021;-58
2023/10/17 03:20:41;;;;;;;32.13;22.63;;;;;;;;;;5069682;28;20402;-58
2023/10/17 03:23:08;;;;;;;31.15;20.20;;;;;;;;;;5071618;28;20107;-58
2023/10/17 03:25:37;;;;;;;26.92;20.50;;;;;;;;;;5069965;28;20025;-58
2023/10/17 03:28:04;;;;;;;35.90;23.08;;;;;;;;;;5071348;28;20013;-58
2023/10/17 03:30:30;;;;;;;30.75;22.67;;;;;;;;;;5069916;28;20143;-58
2023/10/17 03:35:22;;;;;;;28.58;20.65;;;;;;;;;;5069624;28;20032;-58
2023/10/17 03:37:47;;;;;;;26.85;20.60;;;;;;;;;;5071184;28;20085;-58
2023/10/17 03:40:16;;;;;;;25.65;20.17;;;;;;;;;;5069239;28;20543;-58
2023/10/17 03:42:43;;;;;;;;;;;;;;;;;;5071916;28;20024;-58
2023/10/17 03:45:13;;;;;;;34.05;22.27;;;;;;;;;;5069241;28;19908;-57
2023/10/17 03:47:39;;;;;;;36.90;23.88;;;;;;;;;;5070607;28;20430;-58
2023/10/17 03:50:07;;;;;;;39.55;25.90;;;;;;;;;;5069137;28;20043;-58
2023/10/17 03:52:33;;;;;;;34.08;24.27;;;;;;;;;;5070990;28;20582;-57
2023/10/17 03:54:58;;;;;;;36.33;25.17;;;;;;;;;;5067583;28;20036;-58
2023/10/17 03:57:26;;;;;;;34.77;23.07;;;;;;;;;;5070939;28;20103;-58
2023/10/17 03:59:54;;;;;;;35.07;24.83;;;;;;;;;;5069195;28;20459;-59
2023/10/17 04:02:20;;;;;;;31.85;23.73;;;;;;;;;;5070659;28;20020;-58
2023/10/17 04:04:55;;;;;;;38.28;25.30;;;;;;;;;;5068969;28;20025;-58
2023/10/17 04:07:26;;;;;;;33.28;24.88;;;;;;;;;;5070994;28;20078;-58
2023/10/17 04:10:17;;;;;;;37.85;23.35;;;;;;;;;;5068773;28;20104;-58
2023/10/17 04:12:49;;;;;;;35.53;25.83;;;;;;;;;;5070848;28;20185;-58
2023/10/17 04:15:18;;;;;;;38.35;26.58;;;;;;;;;;5068503;28;20119;-58
2023/10/17 04:17:46;;;;;;;39.28;26.48;;;;;;;;;;5070234;28;20027;-58
2023/10/17 04:20:11;;;;;;;31.23;24.65;;;;;;;;;;5068682;28;20060;-58
2023/10/17 04:22:39;;;;;;;38.17;26.00;;;;;;;;;;5070287;28;20506;-58
2023/10/17 04:25:20;;;;;;;31.83;24.83;;;;;;;;;;5068650;28;20044;-58
2023/10/17 04:27:46;;;;;;;44.63;25.75;;;;;;;;;;5069791;28;20044;-58
2023/10/17 04:30:18;;;;;;;37.35;28.23;;;;;;;;;;5069300;28;20063;-59
2023/10/17 04:32:43;;;;;;;38.38;27.63;;;;;;;;;;5070021;28;20031;-57
2023/10/17 04:35:08;;;;;;;42.50;27.02;;;;;;;;;;5069525;28;20037;-57
2023/10/17 04:37:34;;;;;;;50.43;25.40;;;;;;;;;;5069018;28;20245;-56
2023/10/17 04:45:19;;;;;;;35.42;26.55;;;;;;;;;;5070444;28;20455;-58
2023/10/17 04:47:46;;;;;;;40.67;27.95;;;;;;;;;;5068240;28;20052;-57
2023/10/17 04:50:11;;;;;;;37.75;25.95;;;;;;;;;;5069994;28;20031;-57
2023/10/17 04:52:47;;;;;;;33.53;25.55;;;;;;;;;;5068913;28;20033;-57
2023/10/17 04:55:18;;;;;;;41.13;26.50;;;;;;;;;;5070518;28;20017;-56
2023/10/17 05:03:13;;;;;;;46.95;28.45;;;;;;;;;;5072386;28;20052;-57
2023/10/17 05:05:40;;;;;;;40.78;27.48;;;;;;;;;;5068911;28;20157;-57
2023/10/17 05:08:18;;;;;;;44.67;28.10;;;;;;;;;;5060684;28;20028;-56
2023/10/17 06:18:42;;;;;;;46.83;27.92;;;;;;;;;;5071396;28;20146;-56
2023/10/17 06:21:07;;;;;;;44.15;27.27;;;;;;;;;;5069554;28;20295;-56
2023/10/17 06:34:16;;;;;;;48.05;29.58;;;;;;;;;;5052387;28;20049;-56
2023/10/17 06:36:41;;;;;;;47.65;30.13;;;;;;;;;;5051262;28;20510;-57
2023/10/17 06:39:19;;;;;;;45.67;27.35;;;;;;;;;;5051798;28;20033;-56
2023/10/17 06:41:45;;;;;;;47.00;28.53;;;;;;;;;;5050579;28;20043;-57
2023/10/17 06:44:12;;;;;;;50.75;30.38;;;;;;;;;;5052475;28;20511;-56
2023/10/17 06:46:40;;;;;;;45.17;28.63;;;;;;;;;;5050475;28;20055;-57
2023/10/17 06:49:08;;;;;;;41.85;28.63;;;;;;;;;;5052370;28;20025;-57
2023/10/17 06:51:36;;;;;;;39.73;24.20;;;;;;;;;;5050947;28;20565;-56
2023/10/17 06:54:06;;;;;;;44.10;29.00;;;;;;;;;;5051624;28;20555;-57
2023/10/17 06:56:32;;;;;;;55.60;29.45;;;;;;;;;;5050481;28;20033;-57
2023/10/17 06:59:03;;;;;;;51.45;29.63;;;;;;;;;;5052072;28;20086;-57
2023/10/17 07:01:32;;;;;;;47.03;29.45;;;;;;;;;;5050155;28;20036;-57
2023/10/17 07:03:58;;;;;;;58.30;30.10;;;;;;;;;;5052118;28;20071;-57
2023/10/17 07:06:24;;;;;;;49.72;29.45;;;;;;;;;;5050696;28;20116;-57
2023/10/17 07:08:50;;;;;;;41.03;26.70;;;;;;;;;;5051585;28;20100;-56
2023/10/17 07:11:26;;;;;;;55.67;26.05;;;;;;;;;;5050608;28;20064;-57
2023/10/17 07:16:33;;;;;;;36.10;26.25;;;;;;;;;;5048867;28;20061;-57
2023/10/17 07:22:13;;;;;;;43.92;23.48;;;;;;;;;;5040281;28;20037;-57
2023/10/17 07:24:36;;;;;;;33.35;21.00;;;;;;;;;;5051339;28;20119;-57
2023/10/17 07:27:02;;;;;;;35.22;22.10;;;;;;;;;;5049838;28;20152;-57
2023/10/17 07:29:33;;;;;;;24.50;19.00;;;;;;;;;;5049855;28;20104;-57
2023/10/17 07:32:01;;;;;;;26.38;20.98;;;;;;;;;;5049877;28;20453;-57
2023/10/17 07:34:33;;;;;;;30.83;18.13;;;;;;;;;;5051380;28;20056;-57
2023/10/17 07:37:11;;;;;;;39.72;21.92;;;;;;;;;;5049384;28;20041;-56
2023/10/17 07:39:37;;;;;;;22.67;16.33;;;;;;;;;;5051588;28;20040;-56
2023/10/17 07:42:03;;;;;;;22.27;14.77;;;;;;;;;;5049584;28;20029;-56
2023/10/17 07:44:29;;;;;;;20.83;18.58;;;;;;;;;;5050667;28;20503;-56
2023/10/17 07:47:08;;;;;;;19.23;15.50;;;;;;;;;;5049463;28;20057;-56
2023/10/17 07:49:38;;;;;;;16.88;14.10;;;;;;;;;;5051146;28;20104;-56
2023/10/17 07:52:07;;;;;;;15.50;12.55;;;;;;;;;;5068566;28;20495;-56
2023/10/17 07:54:38;;;;;;;22.60;13.20;;;;;;;;;;5070493;28;20025;-56
2023/10/17 07:57:05;;;;;;;18.67;12.70;;;;;;;;;;5068184;28;20059;-56
2023/10/17 07:59:34;;;;;;;13.38;10.70;;;;;;;;;;5069500;28;20081;-56
2023/10/17 08:02:00;;;;;;;14.13;11.05;;;;;;;;;;5068503;28;20036;-60
2023/10/17 08:04:30;;;;;;;8.82;7.32;;;;;;;;;;5066761;28;20017;-56
2023/10/17 08:06:56;;;;;;;16.23;7.80;;;;;;;;;;5068379;28;20503;-57
2023/10/17 08:11:51;;;;;;;9.20;7.15;;;;;;;;;;5068574;28;20503;-57
2023/10/17 08:14:18;;;;;;;16.35;6.97;;;;;;;;;;5070364;28;20025;-57
2023/10/17 08:16:43;;;;;;;8.77;6.07;;;;;;;;;;5069345;28;20497;-57
2023/10/17 08:19:29;;;;;;;15.88;6.18;;;;;;;;;;5070805;28;20048;-57
2023/10/17 08:24:44;;;;;;;12.13;5.25;;;;;;;;;;5071088;28;20027;-57
2023/10/17 08:27:54;;;;;;;6.63;4.32;;;;;;;;;;5069134;28;20480;-57
2023/10/17 08:30:05;;;;;;;4.68;4.05;;;;;;;;;;5065589;28;20082;-57
2023/10/17 08:32:39;;;;;;;7.22;4.43;;;;;;;;;;5070871;28;20099;-57
2023/10/17 08:35:17;;;;;;;9.23;4.88;;;;;;;;;;5067735;28;20484;-57
2023/10/17 08:37:45;;;;;;;4.47;4.05;;;;;;;;;;5070587;28;20024;-57
2023/10/17 08:40:59;;;;;;;5.38;4.43;;;;;;;;;;5068622;28;20565;-57
2023/10/17 08:43:00;;;;;;;8.07;4.95;;;;;;;;;;5059269;28;20036;-56
2023/10/17 08:45:26;;;;;;;7.82;3.92;;;;;;;;;;5068781;28;20108;-57
2023/10/17 08:47:57;;;;;;;8.05;4.53;;;;;;;;;;5070152;28;20070;-57
2023/10/17 08:50:23;;;;;;;5.05;3.30;;;;;;;;;;5069433;28;20033;-57
2023/10/17 08:52:49;;;;;;;3.63;2.70;;;;;;;;;;5069992;28;20048;-57
2023/10/17 08:55:15;;;;;;;7.40;5.18;;;;;;;;;;5069172;28;20137;-59
2023/10/17 08:57:40;;;;;;;8.43;3.60;;;;;;;;;;5070450;28;20482;-57
2023/10/17 09:02:35;;;;;;;6.65;3.28;;;;;;;;;;5070278;28;20032;-56
2023/10/17 09:05:01;;;;;;;6.78;3.10;;;;;;;;;;5068905;28;20043;-57
2023/10/17 09:07:35;;;;;;;5.72;3.28;;;;;;;;;;5066637;28;20029;-56
2023/10/17 09:10:15;;;;;;;6.50;2.90;;;;;;;;;;5067632;28;20048;-59
2023/10/17 09:12:45;;;;;;;17.15;5.88;;;;;;;;;;5070701;28;20012;-57
2023/10/17 09:15:27;;;;;;;4.93;2.80;;;;;;;;;;5067880;28;20074;-67
2023/10/17 09:17:59;;;;;;;6.00;2.90;;;;;;;;;;5069253;28;20020;-58
2023/10/17 09:20:34;;;;;;;5.40;2.08;;;;;;;;;;5068386;28;20048;-66
2023/10/17 09:22:59;;;;;;;3.50;2.38;;;;;;;;;;5068616;28;20107;-57
2023/10/17 09:25:26;;;;;;;14.07;3.83;;;;;;;;;;5068613;28;20112;-57
2023/10/17 09:27:52;;;;;;;4.32;2.25;;;;;;;;;;5069695;28;20028;-57
2023/10/17 09:30:17;;;;;;;6.32;2.55;;;;;;;;;;5067235;28;20032;-57
2023/10/17 09:32:44;;;;;;;6.53;2.67;;;;;;;;;;5069995;28;20494;-57
2023/10/17 09:35:19;;;;;;;8.88;3.35;;;;;;;;;;5068126;28;20041;-57
2023/10/17 09:37:45;;;;;;;5.13;2.25;;;;;;;;;;5070049;28;20529;-57
2023/10/17 09:40:12;;;;;;;3.97;1.83;;;;;;;;;;5068295;28;20036;-57
2023/10/17 09:42:37;;;;;;;4.97;2.08;;;;;;;;;;5072171;28;20088;-56
2023/10/17 09:45:06;;;;;;;6.28;3.20;;;;;;;;;;5071845;28;20128;-57
2023/10/17 09:47:31;;;;;;;3.90;2.25;;;;;;;;;;5073828;28;20028;-57
2023/10/17 09:49:59;;;;;;;5.40;2.88;;;;;;;;;;5071448;28;20020;-57
2023/10/17 09:52:29;;;;;;;12.88;3.42;;;;;;;;;;5073352;28;20409;-57
2023/10/17 09:54:55;;;;;;;4.65;2.63;;;;;;;;;;5071661;28;20020;-57
2023/10/17 09:57:24;;;;;;;4.97;1.95;;;;;;;;;;5072992;28;20080;-57
2023/10/17 10:00:14;;;;;;;7.38;3.53;;;;;;;;;;5071680;28;20051;-57
2023/10/17 10:02:40;;;;;;;5.35;1.88;;;;;;;;;;5073432;28;20020;-57
2023/10/17 10:05:20;;;;;;;9.32;2.60;;;;;;;;;;5071085;28;20024;-57
2023/10/17 10:07:45;;;;;;;3.70;2.67;;;;;;;;;;5073254;28;20020;-57
2023/10/17 10:10:30;;;;;;;5.32;2.97;;;;;;;;;;5071634;28;20025;-57
2023/10/17 10:12:59;;;;;;;4.95;2.20;;;;;;;;;;5069783;28;20028;-57
2023/10/17 10:15:43;;;;;;;5.70;2.90;;;;;;;;;;5070512;28;20032;-57
2023/10/17 10:18:08;;;;;;;5.05;2.65;;;;;;;;;;5072284;28;20078;-57
2023/10/17 10:20:52;;;;;;;2.47;2.10;;;;;;;;;;5069329;28;20040;-68
2023/10/17 10:23:18;;;;;;;3.10;2.15;;;;;;;;;;5058278;28;20036;-57
2023/10/17 10:26:03;;;;;;;3.85;2.50;;;;;;;;;;5059474;28;20036;-57
2023/10/17 10:28:29;;;;;;;8.48;3.10;;;;;;;;;;5070205;28;20464;-57
2023/10/17 10:30:54;;;;;;;13.70;4.25;;;;;;;;;;5070881;28;20046;-57
2023/10/17 10:33:22;;;;;;;5.03;2.25;;;;;;;;;;5072073;28;20021;-57
2023/10/17 10:35:47;;;;;;;8.15;3.10;;;;;;;;;;5067990;28;20048;-58
2023/10/17 10:38:12;;;;;;;6.60;2.70;;;;;;;;;;5071141;28;20027;-57
2023/10/17 10:40:40;;;;;;;5.53;3.20;;;;;;;;;;5070722;28;20528;-57
2023/10/17 10:43:06;;;;;;;3.78;2.15;;;;;;;;;;5071283;28;20522;-57
2023/10/17 10:45:40;;;;;;;4.20;2.38;;;;;;;;;;5070571;28;20045;-57
2023/10/17 10:48:15;;;;;;;6.65;2.30;;;;;;;;;;5071935;28;20356;-57
2023/10/17 10:50:44;;;;;;;3.67;2.10;;;;;;;;;;5070117;28;20044;-57
2023/10/17 10:53:23;;;;;;;4.07;2.08;;;;;;;;;;5070668;28;20017;-57
2023/10/17 10:55:48;;;;;;;;;;;;;;;;;;5070746;28;20395;-57
2023/10/17 10:58:13;;;;;;;6.18;2.65;;;;;;;;;;5071393;28;20314;-57
2023/10/17 11:00:38;;;;;;;3.05;2.30;;;;;;;;;;5070132;28;20032;-57
2023/10/17 11:03:05;;;;;;;4.50;2.00;;;;;;;;;;5071391;28;20275;-57
2023/10/17 11:05:30;;;;;;;6.45;3.55;;;;;;;;;;5070007;28;20384;-57
2023/10/17 11:08:00;;;;;;;3.90;1.90;;;;;;;;;;5071491;28;20035;-57
2023/10/17 11:10:25;;;;;;;5.18;2.53;;;;;;;;;;5069946;28;21017;-57
2023/10/17 11:12:54;;;;;;;5.77;2.33;;;;;;;;;;5070981;28;20046;-67
2023/10/17 11:15:22;;;;;;;4.88;2.65;;;;;;;;;;5069955;28;20450;-57
2023/10/17 11:17:47;;;;;;;6.63;2.63;;;;;;;;;;5063502;28;20480;-57
2023/10/17 11:20:18;;;;;;;6.47;4.23;;;;;;;;;;5052980;28;20117;-57
2023/10/17 11:22:44;;;;;;;5.82;3.33;;;;;;;;;;5071360;28;20021;-57
2023/10/17 11:25:13;;;;;;;3.67;2.47;;;;;;;;;;5069725;28;20036;-57
2023/10/17 11:27:39;;;;;;;3.33;2.10;;;;;;;;;;5070188;28;20020;-57
2023/10/17 11:30:06;;;;;;;6.88;3.22;;;;;;;;;;5069143;28;20051;-57
2023/10/17 11:32:39;;;;;;;8.27;2.97;;;;;;;;;;5071302;28;20044;-57
2023/10/17 11:35:05;;;;;;;4.90;2.38;;;;;;;;;;5068888;28;20507;-57
2023/10/17 11:37:34;;;;;;;6.40;2.25;;;;;;;;;;5071336;28;20048;-57
2023/10/17 11:40:26;;;;;;;;;;;;;;;;;;5070009;28;20032;-57
2023/10/17 11:42:49;;;;;;;7.80;3.67;;;;;;;;;;5070362;28;20533;-57
2023/10/17 11:45:20;;;;;;;3.72;3.22;;;;;;;;;;5069725;28;20107;-57
2023/10/17 11:47:45;;;;;;;5.07;3.03;;;;;;;;;;5071127;28;20024;-57
2023/10/17 11:50:10;;;;;;;9.87;4.80;;;;;;;;;;5067598;28;20032;-57
2023/10/17 11:52:40;;;;;;;4.35;2.38;;;;;;;;;;5069324;28;20446;-57
2023/10/17 11:55:11;;;;;;;4.78;2.13;;;;;;;;;;5069086;28;20063;-57
2023/10/17 11:57:37;;;;;;;3.53;1.92;;;;;;;;;;5070506;28;20051;-57
2023/10/17 12:00:06;;;;;;;3.28;2.00;;;;;;;;;;5068702;28;20493;-57
2023/10/17 12:02:32;;;;;;;3.90;2.83;;;;;;;;;;5071211;28;20029;-57
2023/10/17 12:05:01;;;;;;;6.45;3.05;;;;;;;;;;5068277;28;20431;-57
2023/10/17 12:07:26;;;;;;;3.15;2.42;;;;;;;;;;5070823;28;20016;-57
2023/10/17 12:09:53;;;;;;;5.93;2.83;;;;;;;;;;5068768;28;20418;-57
2023/10/17 12:12:19;;;;;;;2.58;2.35;;;;;;;;;;5070563;28;20017;-57
2023/10/17 12:14:44;;;;;;;2.55;2.35;;;;;;;;;;5069371;28;20016;-57
2023/10/17 12:17:13;;;;;;;3.10;2.40;;;;;;;;;;5070288;28;20376;-57
2023/10/17 12:19:40;;;;;;;5.90;2.30;;;;;;;;;;5068604;28;20024;-57
2023/10/17 12:22:05;;;;;;;7.43;2.83;;;;;;;;;;5070205;28;20100;-57
2023/10/17 12:24:36;;;;;;;4.38;3.95;;;;;;;;;;5070316;28;20158;-57
2023/10/17 12:27:02;;;;;;;3.22;2.15;;;;;;;;;;5068385;28;20036;-57
2023/10/17 12:29:28;;;;;;;8.90;4.30;;;;;;;;;;5070229;28;20491;-57
2023/10/17 12:31:54;;;;;;;3.40;2.13;;;;;;;;;;5068642;28;20454;-57
2023/10/17 12:34:20;;;;;;;6.35;2.75;;;;;;;;;;5069926;28;20055;-57
2023/10/17 12:36:46;;;;;;;4.07;1.98;;;;;;;;;;5068706;28;20038;-57
2023/10/17 12:39:11;;;;;;;3.15;2.60;;;;;;;;;;5066559;28;20038;-57
2023/10/17 12:41:36;;;;;;;7.40;2.03;;;;;;;;;;5068139;28;20121;-57
2023/10/17 12:44:02;;;;;;;14.43;3.90;;;;;;;;;;5069838;28;20488;-57
2023/10/17 12:46:27;;;;;;;3.03;2.78;;;;;;;;;;5068305;28;20053;-57
2023/10/17 12:48:52;;;;;;;5.43;3.17;;;;;;;;;;5068456;28;20056;-57
2023/10/17 12:51:20;;;;;;;7.13;2.97;;;;;;;;;;5068798;28;20041;-57
2023/10/17 12:53:45;;;;;;;3.08;2.22;;;;;;;;;;5070482;28;20029;-57
2023/10/17 12:56:11;;;;;;;8.43;2.03;;;;;;;;;;5068155;28;20530;-57
2023/10/17 12:58:36;;;;;;;4.28;2.30;;;;;;;;;;5069849;28;20964;-57
2023/10/17 13:01:03;;;;;;;4.00;2.50;;;;;;;;;;5068399;28;20036;-57
2023/10/17 13:03:28;;;;;;;2.88;2.58;;;;;;;;;;5069566;28;20099;-57
2023/10/17 13:05:54;;;;;;;10.00;2.70;;;;;;;;;;5065403;28;20123;-57
2023/10/17 13:08:19;;;;;;;4.50;3.40;;;;;;;;;;5052694;28;20017;-57
2023/10/17 13:10:44;;;;;;;4.13;3.10;;;;;;;;;;5048177;28;20037;-57
2023/10/17 13:13:11;;;;;;;6.33;3.37;;;;;;;;;;5048431;28;20019;-61
2023/10/17 13:15:36;;;;;;;8.07;4.05;;;;;;;;;;5047234;28;20547;-57
2023/10/17 13:18:03;;;;;;;8.90;2.90;;;;;;;;;;5052546;28;20096;-57
2023/10/17 13:20:29;;;;;;;11.07;3.70;;;;;;;;;;5052170;28;20079;-57
2023/10/17 13:22:59;;;;;;;4.73;3.27;;;;;;;;;;5053245;28;20020;-57
2023/10/17 13:25:24;;;;;;;16.95;4.18;;;;;;;;;;5051922;28;20037;-57
2023/10/17 13:27:50;;;;;;;11.50;2.97;;;;;;;;;;5053317;28;20086;-57
2023/10/17 13:30:15;;;;;;;4.57;2.92;;;;;;;;;;5052351;28;20044;-57
2023/10/17 13:32:40;;;;;;;3.57;2.93;;;;;;;;;;5053133;28;20429;-57
2023/10/17 13:35:06;;;;;;;2.93;1.93;;;;;;;;;;5051204;28;20056;-57
2023/10/17 13:37:32;;;;;;;5.22;2.85;;;;;;;;;;5052222;28;20029;-57
2023/10/17 13:39:57;;;;;;;7.63;2.33;;;;;;;;;;5051522;28;20733;-56
2023/10/17 13:42:23;;;;;;;8.30;2.27;;;;;;;;;;5053396;28;20424;-56
2023/10/17 13:44:49;;;;;;;2.60;2.33;;;;;;;;;;5051751;28;20510;-56
2023/10/17 13:47:16;;;;;;;3.85;2.30;;;;;;;;;;5052967;28;20100;-57
2023/10/17 13:49:41;;;;;;;6.18;2.45;;;;;;;;;;5051773;28;20035;-55
2023/10/17 13:52:07;;;;;;;3.43;2.53;;;;;;;;;;5058171;28;20020;-61
2023/10/17 13:54:34;;;;;;;15.63;3.65;;;;;;;;;;5066638;28;20038;-56
2023/10/17 13:57:00;;;;;;;2.85;2.55;;;;;;;;;;5071324;28;20028;-56
2023/10/17 13:59:38;;;;;;;5.25;2.65;;;;;;;;;;5072741;28;20527;-56
2023/10/17 14:02:04;;;;;;;3.95;2.22;;;;;;;;;;5070662;28;20476;-56
2023/10/17 14:04:29;;;;;;;7.15;2.80;;;;;;;;;;5073192;28;20063;-56
2023/10/17 14:06:56;;;;;;;5.38;2.60;;;;;;;;;;5071161;28;20051;-56
2023/10/17 14:09:23;;;;;;;4.22;3.15;;;;;;;;;;5072200;28;20468;-56
2023/10/17 14:11:50;;;;;;;5.85;2.80;;;;;;;;;;5066710;28;20055;-57
2023/10/17 14:14:15;;;;;;;3.38;2.90;;;;;;;;;;5058716;28;20372;-57
2023/10/17 14:16:40;;;;;;;3.37;2.83;;;;;;;;;;5067586;28;20051;-57
2023/10/17 14:19:15;;;;;;;9.70;3.07;;;;;;;;;;5072234;28;20064;-57
2023/10/17 14:21:44;;;;;;;6.63;2.78;;;;;;;;;;5070952;28;20466;-57
2023/10/17 14:24:27;;;;;;;2.72;2.53;;;;;;;;;;5071572;28;20020;-57
2023/10/17 14:26:53;;;;;;;3.22;2.72;;;;;;;;;;5067920;28;20036;-57
2023/10/17 14:29:18;;;;;;;5.10;3.33;;;;;;;;;;5066706;28;20471;-57
2023/10/17 14:31:44;;;;;;;3.17;2.80;;;;;;;;;;5049095;28;20079;-57
2023/10/17 14:34:09;;;;;;;7.13;3.17;;;;;;;;;;5050315;28;20060;-57
2023/10/17 14:36:36;;;;;;;3.30;2.97;;;;;;;;;;5068993;28;20433;-57
2023/10/17 14:39:02;;;;;;;3.50;3.20;;;;;;;;;;5069435;28;20434;-57
2023/10/17 14:41:27;;;;;;;6.07;3.35;;;;;;;;;;5069898;28;20037;-60
2023/10/17 14:43:54;;;;;;;10.45;3.80;;;;;;;;;;5071161;28;20021;-57
2023/10/17 14:46:20;;;;;;;15.40;3.28;;;;;;;;;;5069620;28;20051;-57
2023/10/17 14:48:45;;;;;;;5.43;3.15;;;;;;;;;;5071680;28;20025;-57
2023/10/17 14:51:12;;;;;;;4.38;2.45;;;;;;;;;;5057851;28;20037;-57
2023/10/17 14:53:37;;;;;;;7.72;4.22;;;;;;;;;;5058613;28;20085;-57
2023/10/17 14:56:04;;;;;;;7.78;4.40;;;;;;;;;;5063038;28;20083;-57
2023/10/17 14:58:29;;;;;;;4.60;2.80;;;;;;;;;;5058439;28;20021;-57
2023/10/17 15:00:55;;;;;;;5.45;3.45;;;;;;;;;;5054314;28;20059;-57
2023/10/17 15:03:20;;;;;;;4.70;4.18;;;;;;;;;;5070669;28;20029;-57
2023/10/17 15:05:46;;;;;;;4.88;3.55;;;;;;;;;;5070278;28;20040;-57
2023/10/17 15:08:11;;;;;;;5.30;3.83;;;;;;;;;;5071608;28;20103;-56
2023/10/17 15:10:39;;;;;;;11.85;4.78;;;;;;;;;;5070784;28;20029;-57
2023/10/17 15:13:05;;;;;;;4.88;3.78;;;;;;;;;;5071278;28;20028;-57
2023/10/17 15:15:31;;;;;;;6.13;4.63;;;;;;;;;;5050215;28;20033;-56
2023/10/17 15:17:57;;;;;;;4.45;3.78;;;;;;;;;;5051903;28;20108;-56
2023/10/17 15:20:23;;;;;;;8.18;4.72;;;;;;;;;;5061643;28;20036;-56
2023/10/17 15:22:49;;;;;;;5.57;4.32;;;;;;;;;;5071283;28;20553;-56
2023/10/17 15:25:14;;;;;;;10.27;5.60;;;;;;;;;;5069906;28;20033;-57
2023/10/17 15:27:40;;;;;;;4.60;4.00;;;;;;;;;;5071011;28;20429;-56
2023/10/17 15:30:08;;;;;;;4.35;3.95;;;;;;;;;;5069746;28;20082;-56
2023/10/17 15:32:33;;;;;;;6.63;3.90;;;;;;;;;;5069903;28;20059;-56
2023/10/17 15:34:58;;;;;;;6.67;4.30;;;;;;;;;;5069347;28;20076;-56
2023/10/17 15:37:23;;;;;;;4.07;3.60;;;;;;;;;;5070980;28;20017;-56
2023/10/17 15:39:48;;;;;;;13.67;12.27;;;;;;;;;;5068560;28;20099;-57
2023/10/17 15:42:17;;;;;;;10.45;7.90;;;;;;;;;;5069120;28;20017;-57
2023/10/17 15:44:43;;;;;;;7.53;6.80;;;;;;;;;;5069828;28;20016;-57
2023/10/17 15:47:08;;;;;;;7.47;4.57;;;;;;;;;;5070257;28;20050;-57
2023/10/17 15:49:33;;;;;;;7.50;5.30;;;;;;;;;;5071141;28;20028;-57
2023/10/17 15:51:59;;;;;;;9.52;6.63;;;;;;;;;;5067803;28;20509;-57
2023/10/17 15:54:24;;;;;;;17.30;12.63;;;;;;;;;;5064274;28;20024;-56
2023/10/17 15:56:49;;;;;;;28.15;22.63;;;;;;;;;;5050238;28;20040;-57
2023/10/17 15:59:15;;;;;;;6.45;5.85;;;;;;;;;;5050863;28;20061;-57
2023/10/17 16:01:40;;;;;;;17.55;16.10;;;;;;;;;;5052409;28;20612;-56
2023/10/17 16:04:05;;;;;;;6.20;5.40;;;;;;;;;;5037115;28;20033;-56
2023/10/17 16:06:31;;;;;;;6.10;5.50;;;;;;;;;;5053838;28;20029;-56
2023/10/17 16:08:56;;;;;;;6.53;5.78;;;;;;;;;;5070072;28;20035;-56
2023/10/17 16:11:21;;;;;;;9.10;6.00;;;;;;;;;;5068609;28;20555;-57
2023/10/17 16:13:47;;;;;;;8.25;5.47;;;;;;;;;;5070390;28;20058;-56
2023/10/17 16:16:12;;;;;;;9.75;6.93;;;;;;;;;;5068389;28;20085;-56
2023/10/17 16:18:37;;;;;;;9.48;6.03;;;;;;;;;;5068380;28;20049;-63
2023/10/17 16:21:05;;;;;;;8.02;5.38;;;;;;;;;;5065354;28;20044;-56
2023/10/17 16:23:30;;;;;;;7.40;6.65;;;;;;;;;;5067989;28;20021;-56
2023/10/17 16:25:58;;;;;;;8.75;6.22;;;;;;;;;;5068403;28;20039;-56
2023/10/17 16:28:23;;;;;;;6.20;5.60;;;;;;;;;;5070100;28;20383;-56